Aviation Digital Data Service (ADDS)

Output produced by TAFs form (0143 UTC 22 November 2017)
found at http://www.aviationweather.gov/adds/tafs/
 
METAR text: ROMY 220100Z 22006KT 9999 VCSH FEW004 SCT008 BKN040 23/23 Q1014
Conditions at: ROMY (MIYAKOJIMA ISLAN, JP) observed 0100 UTC 22 November 2017
Temperature: 23.0°C (73°F)
Dewpoint: 23.0°C (73°F) [RH = 100%]
Pressure (altimeter): 29.94 inches Hg (1014.0 mb)
Winds: from the SW (220 degrees) at 7 MPH (6 knots; 3.1 m/s)
Visibility: 6 or more miles (10+ km)
Ceiling: 4000 feet AGL
Clouds: few clouds at 400 feet AGL
scattered clouds at 800 feet AGL
broken clouds at 4000 feet AGL
Weather: VCSH  (showers in vicinity)